createdAt,value
2023-03-30T00:01:17.454Z,5.80
2023-03-30T00:03:45.936Z,5.57
2023-03-30T00:06:14.744Z,5.68
2023-03-30T00:08:41.279Z,5.80
2023-03-30T00:11:13.190Z,5.45
2023-03-30T00:13:40.209Z,5.45
2023-03-30T00:16:09.104Z,5.85
2023-03-30T00:18:36.689Z,5.70
2023-03-30T00:21:03.804Z,5.60
2023-03-30T00:23:30.880Z,5.90
2023-03-30T00:25:57.317Z,5.68
2023-03-30T00:28:26.084Z,5.55
2023-03-30T00:30:53.686Z,5.82
2023-03-30T00:33:27.590Z,5.43
2023-03-30T00:36:00.328Z,4.97
2023-03-30T00:38:27.205Z,5.03
2023-03-30T00:40:55.957Z,5.72
2023-03-30T00:43:22.999Z,5.07
2023-03-30T00:45:49.869Z,4.85
2023-03-30T00:48:19.423Z,4.82
2023-03-30T00:50:53.299Z,5.32
2023-03-30T00:53:28.731Z,4.68
2023-03-30T00:55:56.099Z,5.03
2023-03-30T00:58:23.020Z,5.00
2023-03-30T01:00:49.572Z,5.25
2023-03-30T01:03:19.424Z,5.13
2023-03-30T01:05:46.280Z,5.40
2023-03-30T01:08:16.568Z,4.90
2023-03-30T01:10:44.664Z,5.13
2023-03-30T01:13:12.782Z,5.07
2023-03-30T01:15:48.639Z,5.00
2023-03-30T01:18:24.113Z,5.18
2023-03-30T01:21:04.239Z,5.03
2023-03-30T01:23:49.601Z,5.10
2023-03-30T01:26:36.448Z,4.75
2023-03-30T01:29:10.202Z,5.30
2023-03-30T01:31:54.716Z,4.85
2023-03-30T01:34:33.690Z,5.13
2023-03-30T01:37:28.812Z,4.85
2023-03-30T01:40:17.298Z,4.65
2023-03-30T01:42:57.491Z,4.50
2023-03-30T01:45:33.529Z,5.03
2023-03-30T01:48:13.831Z,4.65
2023-03-30T01:50:42.987Z,4.13
2023-03-30T01:53:23.455Z,4.82
2023-03-30T01:55:55.802Z,4.97
2023-03-30T01:58:44.218Z,4.63
2023-03-30T02:01:13.603Z,4.65
2023-03-30T02:03:42.053Z,4.65
2023-03-30T02:06:24.443Z,4.82
2023-03-30T02:08:52.450Z,4.60
2023-03-30T02:11:18.869Z,4.95
2023-03-30T02:13:47.325Z,4.47
2023-03-30T02:16:16.755Z,4.55
2023-03-30T02:18:43.473Z,4.65
2023-03-30T02:21:09.958Z,4.70
2023-03-30T02:23:39.964Z,4.50
2023-03-30T02:26:08.025Z,4.32
2023-03-30T02:28:35.169Z,5.07
2023-03-30T02:31:01.926Z,4.78
2023-03-30T02:33:36.461Z,4.45
2023-03-30T02:36:10.271Z,4.10
2023-03-30T02:38:52.740Z,5.03
2023-03-30T02:41:33.201Z,4.43
2023-03-30T02:44:14.743Z,5.07
2023-03-30T02:46:49.901Z,4.10
2023-03-30T02:49:47.288Z,4.78
2023-03-30T02:52:36.864Z,4.07
2023-03-30T02:55:22.196Z,4.68
2023-03-30T02:57:55.798Z,4.40
2023-03-30T03:00:28.201Z,4.53
2023-03-30T03:02:58.384Z,4.45
2023-03-30T03:05:26.333Z,4.55
2023-03-30T03:07:53.574Z,4.53
2023-03-30T03:10:20.042Z,4.85
2023-03-30T03:12:46.838Z,4.50
2023-03-30T03:15:13.830Z,5.20
2023-03-30T03:17:40.314Z,4.93
2023-03-30T03:20:10.479Z,4.78
2023-03-30T03:22:37.249Z,4.68
2023-03-30T03:25:05.730Z,5.10
2023-03-30T03:27:32.145Z,4.82
2023-03-30T03:29:58.856Z,4.80
2023-03-30T03:32:25.328Z,4.75
2023-03-30T03:34:52.045Z,4.82
2023-03-30T03:37:18.517Z,5.00
2023-03-30T03:39:44.952Z,4.25
2023-03-30T03:42:11.492Z,4.50
2023-03-30T03:44:38.633Z,4.70
2023-03-30T03:47:05.070Z,4.68
2023-03-30T03:49:31.656Z,4.35
2023-03-30T03:51:58.141Z,4.85
2023-03-30T03:54:24.566Z,4.10
2023-03-30T03:56:51.959Z,4.55
2023-03-30T03:59:19.513Z,4.75
2023-03-30T04:01:46.050Z,4.35
2023-03-30T04:04:12.520Z,5.00
2023-03-30T04:06:38.962Z,4.72
2023-03-30T04:09:05.404Z,4.32
2023-03-30T04:11:31.832Z,5.13
2023-03-30T04:13:58.240Z,4.20
2023-03-30T04:16:24.790Z,4.43
2023-03-30T04:18:51.261Z,4.57
2023-03-30T04:21:20.082Z,5.05
2023-03-30T04:23:49.121Z,4.40
2023-03-30T04:26:15.963Z,4.68
2023-03-30T04:28:42.400Z,4.00
2023-03-30T04:31:12.935Z,4.70
2023-03-30T04:33:51.964Z,4.75
2023-03-30T04:36:20.077Z,4.35
2023-03-30T04:38:58.334Z,4.50
2023-03-30T04:41:29.924Z,5.03
2023-03-30T04:43:56.312Z,4.63
2023-03-30T04:46:22.796Z,4.50
2023-03-30T04:48:49.278Z,4.70
2023-03-30T04:51:16.098Z,4.50
2023-03-30T04:53:42.785Z,4.68
2023-03-30T04:56:09.221Z,4.88
2023-03-30T04:58:35.641Z,4.18
2023-03-30T05:01:03.763Z,4.70
2023-03-30T05:03:31.261Z,4.10
2023-03-30T05:05:57.832Z,3.95
2023-03-30T05:08:24.303Z,3.97
2023-03-30T05:10:50.723Z,3.60
2023-03-30T05:13:17.501Z,3.58
2023-03-30T05:15:43.920Z,3.80
2023-03-30T05:18:10.371Z,3.58
2023-03-30T05:20:36.842Z,3.33
2023-03-30T05:23:03.265Z,3.65
2023-03-30T05:25:31.230Z,3.60
2023-03-30T05:27:58.091Z,3.17
2023-03-30T05:30:24.511Z,3.30
2023-03-30T05:32:52.109Z,2.90
2023-03-30T05:35:18.622Z,3.50
2023-03-30T05:37:45.151Z,3.55
2023-03-30T05:40:11.716Z,3.17
2023-03-30T05:42:38.163Z,3.20
2023-03-30T05:45:05.544Z,3.28
2023-03-30T05:47:32.007Z,3.28
2023-03-30T05:49:58.429Z,2.83
2023-03-30T05:52:24.869Z,3.30
2023-03-30T05:54:51.370Z,2.90
2023-03-30T05:57:17.906Z,3.30
2023-03-30T05:59:44.533Z,2.90
2023-03-30T06:02:12.865Z,3.28
2023-03-30T06:04:40.339Z,3.00
2023-03-30T06:07:07.915Z,2.97
2023-03-30T06:09:34.556Z,2.60
2023-03-30T06:12:01.141Z,2.95
2023-03-30T06:14:27.625Z,2.78
2023-03-30T06:16:54.079Z,3.20
2023-03-30T06:19:20.642Z,2.58
2023-03-30T06:21:47.709Z,2.83
2023-03-30T06:24:14.157Z,3.15
2023-03-30T06:26:41.197Z,3.28
2023-03-30T06:29:07.632Z,2.70
2023-03-30T06:31:34.249Z,2.72
2023-03-30T06:34:01.011Z,2.78
2023-03-30T06:36:45.188Z,2.72
2023-03-30T06:39:13.031Z,2.83
2023-03-30T06:41:39.458Z,2.83
2023-03-30T06:44:06.630Z,2.70
2023-03-30T06:46:33.529Z,2.72
2023-03-30T06:48:59.949Z,2.60
2023-03-30T06:51:26.522Z,2.53
2023-03-30T06:53:52.984Z,2.63
2023-03-30T06:56:19.382Z,2.65
2023-03-30T06:58:46.830Z,2.70
2023-03-30T07:01:15.485Z,2.58
2023-03-30T07:03:41.969Z,2.50
2023-03-30T07:06:09.663Z,2.55
2023-03-30T07:08:37.051Z,2.20
2023-03-30T07:11:05.203Z,2.15
2023-03-30T07:13:34.207Z,2.00
2023-03-30T07:16:00.963Z,2.13
2023-03-30T07:18:27.401Z,2.35
2023-03-30T07:20:53.860Z,2.22
2023-03-30T07:23:21.623Z,2.35
2023-03-30T07:25:48.113Z,2.38
2023-03-30T07:28:14.585Z,2.20
2023-03-30T07:30:41.350Z,2.53
2023-03-30T07:33:07.967Z,2.40
2023-03-30T07:35:34.472Z,2.45
2023-03-30T07:38:03.747Z,2.50
2023-03-30T07:40:30.443Z,2.00
2023-03-30T07:42:56.959Z,2.50
2023-03-30T07:45:23.376Z,2.00
2023-03-30T07:47:49.849Z,2.10
2023-03-30T07:50:16.474Z,2.22
2023-03-30T07:52:42.978Z,1.92
2023-03-30T07:55:09.508Z,2.25
2023-03-30T07:57:35.988Z,2.25
2023-03-30T08:00:05.258Z,2.25
2023-03-30T08:02:31.744Z,2.50
2023-03-30T08:04:58.328Z,2.40
2023-03-30T08:07:27.554Z,2.72
2023-03-30T08:09:54.011Z,2.78
2023-03-30T08:12:20.441Z,2.80
2023-03-30T08:14:46.856Z,3.17
2023-03-30T08:17:13.494Z,3.03
2023-03-30T08:19:39.915Z,3.03
2023-03-30T08:22:06.617Z,2.40
2023-03-30T08:24:33.024Z,2.20
2023-03-30T08:26:59.482Z,2.22
2023-03-30T08:29:25.902Z,2.40
2023-03-30T08:31:52.701Z,2.42
2023-03-30T08:34:20.120Z,2.28
2023-03-30T08:36:46.709Z,2.55
2023-03-30T08:39:13.144Z,2.38
2023-03-30T08:42:02.115Z,2.17
2023-03-30T08:44:34.450Z,2.28
2023-03-30T08:47:04.249Z,2.10
2023-03-30T08:49:33.860Z,2.17
2023-03-30T08:52:03.045Z,2.33
2023-03-30T08:54:30.567Z,2.33
2023-03-30T08:57:06.223Z,2.53
2023-03-30T08:59:51.572Z,2.53
2023-03-30T09:02:23.416Z,2.67
2023-03-30T09:05:04.719Z,2.28
2023-03-30T09:07:38.084Z,2.53
2023-03-30T09:10:04.757Z,2.20
2023-03-30T09:12:46.753Z,2.95
2023-03-30T09:15:32.246Z,2.92
2023-03-30T09:18:07.567Z,2.60
2023-03-30T09:20:36.211Z,2.85
2023-03-30T09:23:03.692Z,2.63
2023-03-30T09:25:49.192Z,2.33
2023-03-30T09:28:21.152Z,3.10
2023-03-30T09:31:20.501Z,2.15
2023-03-30T09:34:08.941Z,2.40
2023-03-30T09:36:39.911Z,2.47
2023-03-30T09:39:19.148Z,2.75
2023-03-30T09:41:51.803Z,2.22
2023-03-30T09:44:27.322Z,2.45
2023-03-30T09:46:58.499Z,2.70
2023-03-30T09:49:28.743Z,2.78
2023-03-30T09:52:04.485Z,2.90
2023-03-30T09:54:38.724Z,2.97
2023-03-30T09:57:05.621Z,2.38
2023-03-30T09:59:37.144Z,3.08
2023-03-30T10:02:12.626Z,2.75
2023-03-30T10:04:52.175Z,3.17
2023-03-30T10:07:31.095Z,2.70
2023-03-30T10:09:59.167Z,3.20
2023-03-30T10:12:26.414Z,2.70
2023-03-30T10:14:58.358Z,3.28
2023-03-30T10:17:26.008Z,2.63
2023-03-30T10:20:14.969Z,2.65
2023-03-30T10:22:56.453Z,2.92
2023-03-30T10:25:31.476Z,3.33
2023-03-30T10:28:02.679Z,2.70
2023-03-30T10:30:29.618Z,2.88
2023-03-30T10:32:59.032Z,2.83
2023-03-30T10:35:27.702Z,2.80
2023-03-30T10:37:55.810Z,2.83
2023-03-30T10:40:27.905Z,3.03
2023-03-30T10:42:57.538Z,3.08
2023-03-30T10:45:48.377Z,2.65
2023-03-30T10:48:34.796Z,2.80
2023-03-30T10:51:27.563Z,2.83
2023-03-30T10:54:23.581Z,2.85
2023-03-30T10:57:22.472Z,2.65
2023-03-30T10:59:57.958Z,2.90
2023-03-30T11:02:39.626Z,2.65
2023-03-30T11:05:12.421Z,2.95
2023-03-30T11:07:44.083Z,3.22
2023-03-30T11:10:22.240Z,3.63
2023-03-30T11:13:07.073Z,3.88
2023-03-30T11:15:38.740Z,2.70
2023-03-30T11:18:21.912Z,3.10
2023-03-30T11:20:56.992Z,2.88
2023-03-30T11:23:45.773Z,2.97
2023-03-30T11:26:15.983Z,2.83
2023-03-30T11:29:03.920Z,2.70
2023-03-30T11:31:44.936Z,2.50
2023-03-30T11:34:21.468Z,2.78
2023-03-30T11:37:13.241Z,2.58
2023-03-30T11:39:46.229Z,2.90
2023-03-30T11:42:17.322Z,2.50
2023-03-30T11:44:44.051Z,2.40
2023-03-30T11:47:15.341Z,2.65
2023-03-30T11:50:01.933Z,1.90
2023-03-30T11:52:33.275Z,2.30
2023-03-30T11:55:23.865Z,2.00
2023-03-30T11:58:06.840Z,1.92
2023-03-30T12:00:51.984Z,2.03
2023-03-30T12:03:39.506Z,2.10
2023-03-30T12:06:31.180Z,1.90
2023-03-30T12:09:03.428Z,1.83
2023-03-30T12:11:39.640Z,2.17
2023-03-30T12:14:27.277Z,2.42
2023-03-30T12:16:59.115Z,2.63
2023-03-30T12:19:55.481Z,2.20
2023-03-30T12:22:34.942Z,2.58
2023-03-30T12:25:15.151Z,2.63
2023-03-30T12:28:01.146Z,2.92
2023-03-30T12:30:43.850Z,2.42
2023-03-30T12:33:26.247Z,2.60
2023-03-30T12:35:56.060Z,2.30
2023-03-30T12:38:46.203Z,2.83
2023-03-30T12:41:15.940Z,2.78
2023-03-30T12:43:58.669Z,2.20
2023-03-30T12:46:41.860Z,2.45
2023-03-30T12:49:16.407Z,2.42
2023-03-30T12:52:05.111Z,2.00
2023-03-30T12:54:49.729Z,1.92
2023-03-30T12:57:36.693Z,1.45
2023-03-30T13:00:23.493Z,1.10
2023-03-30T13:03:00.797Z,1.35
2023-03-30T13:05:32.926Z,1.52
2023-03-30T13:08:05.484Z,1.27
2023-03-30T13:10:31.885Z,1.67
2023-03-30T13:13:00.034Z,1.50
2023-03-30T13:15:33.892Z,1.80
2023-03-30T13:18:09.546Z,1.70
2023-03-30T13:20:57.505Z,1.80
2023-03-30T13:23:27.384Z,1.50
2023-03-30T13:26:03.107Z,1.40
2023-03-30T13:28:54.773Z,1.50
2023-03-30T13:31:40.313Z,1.60
2023-03-30T13:34:16.565Z,1.67
2023-03-30T13:36:52.785Z,1.70
2023-03-30T13:39:26.308Z,1.40
2023-03-30T13:42:18.937Z,1.80
2023-03-30T13:44:59.022Z,1.77
2023-03-30T13:47:57.714Z,1.73
2023-03-30T13:50:27.976Z,1.85
2023-03-30T13:52:55.808Z,1.60
2023-03-30T13:55:30.135Z,1.80
2023-03-30T13:58:29.088Z,1.83
2023-03-30T14:01:01.501Z,1.70
2023-03-30T14:04:00.781Z,1.75
2023-03-30T14:06:30.156Z,1.70
2023-03-30T14:09:05.489Z,1.75
2023-03-30T14:11:50.136Z,1.70
2023-03-30T14:14:31.156Z,1.75
2023-03-30T14:16:59.907Z,1.80
2023-03-30T14:19:34.094Z,1.40
2023-03-30T14:22:04.733Z,1.70
2023-03-30T14:24:33.352Z,1.90
2023-03-30T14:27:06.401Z,1.70
2023-03-30T14:29:33.236Z,1.65
2023-03-30T14:32:08.152Z,1.67
2023-03-30T14:34:35.995Z,1.88
2023-03-30T14:37:07.801Z,1.90
2023-03-30T14:39:40.488Z,2.38
2023-03-30T14:42:17.512Z,2.15
2023-03-30T14:44:45.604Z,2.25
2023-03-30T14:47:12.186Z,2.28
2023-03-30T14:49:39.072Z,1.98
2023-03-30T14:52:24.304Z,2.25
2023-03-30T14:55:05.052Z,2.00
2023-03-30T14:57:37.799Z,1.88
2023-03-30T15:00:21.023Z,1.55
2023-03-30T15:02:53.965Z,1.80
2023-03-30T15:05:23.074Z,1.80
2023-03-30T15:07:50.412Z,1.98
2023-03-30T15:10:31.692Z,2.08
2023-03-30T15:12:58.185Z,1.63
2023-03-30T15:15:28.355Z,1.70
2023-03-30T15:17:55.440Z,2.03
2023-03-30T15:20:25.672Z,2.20
2023-03-30T15:22:52.329Z,2.10
2023-03-30T15:25:21.395Z,2.58
2023-03-30T15:27:54.855Z,2.28
2023-03-30T15:30:35.041Z,1.92
2023-03-30T15:33:02.417Z,1.70
2023-03-30T15:35:34.004Z,1.40
2023-03-30T15:38:10.857Z,1.90
2023-03-30T15:40:42.772Z,1.20
2023-03-30T15:43:19.509Z,1.40
2023-03-30T15:45:49.031Z,1.38
2023-03-30T15:48:18.824Z,1.45
2023-03-30T15:50:49.784Z,1.50
2023-03-30T15:53:21.161Z,1.45
2023-03-30T15:55:51.610Z,1.33
2023-03-30T15:58:23.178Z,1.75
2023-03-30T16:00:49.742Z,1.50
2023-03-30T16:03:31.500Z,1.50
2023-03-30T16:05:58.224Z,1.73
2023-03-30T16:08:24.642Z,1.50
2023-03-30T16:10:51.185Z,1.40
2023-03-30T16:13:17.679Z,1.35
2023-03-30T16:15:44.280Z,1.60
2023-03-30T16:18:12.247Z,1.23
2023-03-30T16:20:38.713Z,1.30
2023-03-30T16:23:05.193Z,1.13
2023-03-30T16:25:44.224Z,1.48
2023-03-30T16:28:17.022Z,1.10
2023-03-30T16:30:45.876Z,0.88
2023-03-30T16:33:12.366Z,1.30
2023-03-30T16:35:38.845Z,1.20
2023-03-30T16:38:05.500Z,0.90
2023-03-30T16:40:37.376Z,1.40
2023-03-30T16:43:04.343Z,1.40
2023-03-30T16:45:32.112Z,1.17
2023-03-30T16:47:58.658Z,1.45
2023-03-30T16:50:38.151Z,1.40
2023-03-30T16:53:05.440Z,1.55
2023-03-30T16:55:32.204Z,1.45
2023-03-30T16:57:58.727Z,1.55
2023-03-30T17:00:27.867Z,1.63
2023-03-30T17:02:54.438Z,1.73
2023-03-30T17:05:20.933Z,1.35
2023-03-30T17:07:47.703Z,1.80
2023-03-30T17:10:15.556Z,1.30
2023-03-30T17:12:42.995Z,1.50
2023-03-30T17:15:10.119Z,1.25
2023-03-30T17:17:37.310Z,1.50
2023-03-30T17:20:34.627Z,1.17
2023-03-30T17:23:01.071Z,1.20
2023-03-30T17:25:27.527Z,1.35
2023-03-30T17:27:55.466Z,1.27
2023-03-30T17:30:26.678Z,1.30
2023-03-30T17:32:55.265Z,1.10
2023-03-30T17:35:22.901Z,1.05
2023-03-30T17:37:49.478Z,0.80
2023-03-30T17:40:19.211Z,0.98
2023-03-30T17:42:46.237Z,0.85
2023-03-30T17:45:14.979Z,1.20
2023-03-30T17:47:42.065Z,0.70
2023-03-30T17:50:25.624Z,0.73
2023-03-30T17:52:52.751Z,1.00
2023-03-30T17:55:20.261Z,1.20
2023-03-30T17:57:46.790Z,1.00
2023-03-30T18:00:16.896Z,1.00
2023-03-30T18:02:43.397Z,1.15
2023-03-30T18:05:10.246Z,1.38
2023-03-30T18:07:36.798Z,1.20
2023-03-30T18:10:16.040Z,1.52
2023-03-30T18:12:42.502Z,1.40
2023-03-30T18:15:09.143Z,1.45
2023-03-30T18:17:35.636Z,1.42
2023-03-30T18:20:15.168Z,1.65
2023-03-30T18:22:41.593Z,1.88
2023-03-30T18:25:09.708Z,1.67
2023-03-30T18:27:39.465Z,1.50
2023-03-30T18:30:23.730Z,2.05
2023-03-30T18:32:50.920Z,1.90
2023-03-30T18:35:18.861Z,1.65
2023-03-30T18:37:45.699Z,1.80
2023-03-30T18:40:18.840Z,2.50
2023-03-30T18:42:45.612Z,2.03
2023-03-30T18:45:23.640Z,2.00
2023-03-30T18:47:50.346Z,2.17
2023-03-30T18:50:20.891Z,1.80
2023-03-30T18:52:47.326Z,1.90
2023-03-30T18:55:15.253Z,2.15
2023-03-30T18:57:42.138Z,2.03
2023-03-30T19:00:18.989Z,1.70
2023-03-30T19:02:45.861Z,1.98
2023-03-30T19:05:12.348Z,2.10
2023-03-30T19:07:39.115Z,1.77
2023-03-30T19:10:06.419Z,2.08
2023-03-30T19:12:33.829Z,1.67
2023-03-30T19:15:00.330Z,1.80
2023-03-30T19:17:27.332Z,1.75
2023-03-30T19:19:53.771Z,1.85
2023-03-30T19:22:20.246Z,1.77
2023-03-30T19:24:46.705Z,1.52
2023-03-30T19:27:13.182Z,1.60
2023-03-30T19:29:39.687Z,1.95
2023-03-30T19:32:06.171Z,1.80
2023-03-30T19:34:32.650Z,1.92
2023-03-30T19:36:59.105Z,1.80
2023-03-30T19:39:25.516Z,1.67
2023-03-30T19:41:52.060Z,1.60
2023-03-30T19:44:18.457Z,2.25
2023-03-30T19:46:44.960Z,1.65
2023-03-30T19:49:11.426Z,2.00
2023-03-30T19:51:37.825Z,2.65
2023-03-30T19:54:04.319Z,2.08
2023-03-30T19:56:30.790Z,1.88
2023-03-30T19:58:58.704Z,1.80
2023-03-30T20:01:25.164Z,2.22
2023-03-30T20:03:51.742Z,2.55
2023-03-30T20:06:18.191Z,2.00
2023-03-30T20:08:45.033Z,2.05
2023-03-30T20:11:12.470Z,2.03
2023-03-30T20:13:45.272Z,2.40
2023-03-30T20:16:20.216Z,2.70
2023-03-30T20:18:50.592Z,2.40
2023-03-30T20:21:21.756Z,1.77
2023-03-30T20:23:48.339Z,1.70
2023-03-30T20:26:16.727Z,1.90
2023-03-30T20:28:43.740Z,2.15
2023-03-30T20:31:11.831Z,1.88
2023-03-30T20:33:38.756Z,2.05
2023-03-30T20:36:08.967Z,1.80
2023-03-30T20:38:39.600Z,1.70
2023-03-30T20:41:07.171Z,1.88
2023-03-30T20:43:38.467Z,1.98
2023-03-30T20:46:14.021Z,2.00
2023-03-30T20:48:41.283Z,1.67
2023-03-30T20:51:10.999Z,1.55
2023-03-30T20:53:37.754Z,1.98
2023-03-30T20:56:05.824Z,1.90
2023-03-30T20:58:32.371Z,1.45
2023-03-30T21:00:58.927Z,2.03
2023-03-30T21:03:29.197Z,1.63
2023-03-30T21:06:00.804Z,1.75
2023-03-30T21:08:27.318Z,1.83
2023-03-30T21:10:53.766Z,1.70
2023-03-30T21:13:20.318Z,1.85
2023-03-30T21:15:46.763Z,2.20
2023-03-30T21:18:13.404Z,2.08
2023-03-30T21:20:39.928Z,1.88
2023-03-30T21:23:06.852Z,2.22
2023-03-30T21:25:33.327Z,2.10
2023-03-30T21:27:59.802Z,1.70
2023-03-30T21:30:28.356Z,2.10
2023-03-30T21:32:54.867Z,1.55
2023-03-30T21:35:21.367Z,1.67
2023-03-30T21:37:47.873Z,1.77
2023-03-30T21:40:14.354Z,1.52
2023-03-30T21:42:40.833Z,1.73
2023-03-30T21:45:07.969Z,1.50
2023-03-30T21:47:34.566Z,1.35
2023-03-30T21:50:01.035Z,1.60
2023-03-30T21:52:28.862Z,1.80
2023-03-30T21:54:55.320Z,1.63
2023-03-30T21:57:22.005Z,1.60
2023-03-30T21:59:48.634Z,1.60
2023-03-30T22:02:15.228Z,2.00
2023-03-30T22:04:44.820Z,1.70
2023-03-30T22:07:11.380Z,1.83
2023-03-30T22:09:37.867Z,1.60
2023-03-30T22:12:04.427Z,1.70
2023-03-30T22:14:31.018Z,1.80
2023-03-30T22:16:57.935Z,2.08
2023-03-30T22:19:24.716Z,1.60
2023-03-30T22:21:51.952Z,1.83
2023-03-30T22:24:19.243Z,1.55
2023-03-30T22:26:46.262Z,1.73
2023-03-30T22:29:13.017Z,1.60
2023-03-30T22:31:42.583Z,1.55
2023-03-30T22:34:09.073Z,1.83
2023-03-30T22:36:35.694Z,1.42
2023-03-30T22:39:03.735Z,1.50
2023-03-30T22:41:30.636Z,1.48
2023-03-30T22:43:57.957Z,1.38
2023-03-30T22:46:25.549Z,1.60
2023-03-30T22:48:52.677Z,1.35
2023-03-30T22:51:28.306Z,1.30
2023-03-30T22:53:59.360Z,1.90
2023-03-30T22:56:27.405Z,1.55
2023-03-30T22:58:54.040Z,1.42
2023-03-30T23:01:21.587Z,1.35
2023-03-30T23:03:48.193Z,1.48
2023-03-30T23:06:14.854Z,1.60
2023-03-30T23:08:42.548Z,1.30
2023-03-30T23:11:09.023Z,1.45
2023-03-30T23:13:37.792Z,1.50
2023-03-30T23:16:06.548Z,1.65
2023-03-30T23:18:34.232Z,1.42
2023-03-30T23:21:06.082Z,1.48
2023-03-30T23:23:34.518Z,1.23
2023-03-30T23:26:03.024Z,1.30
2023-03-30T23:28:31.484Z,1.65
2023-03-30T23:30:58.161Z,1.60
2023-03-30T23:33:25.078Z,1.40
2023-03-30T23:35:51.571Z,1.30
2023-03-30T23:38:18.161Z,1.40
2023-03-30T23:40:44.606Z,1.60
2023-03-30T23:43:11.090Z,1.70
2023-03-30T23:45:37.577Z,1.70
2023-03-30T23:48:04.212Z,1.50
2023-03-30T23:50:33.047Z,1.27
2023-03-30T23:52:59.602Z,1.30
2023-03-30T23:55:26.149Z,1.85
2023-03-30T23:57:52.630Z,1.48
